createdAt,value
2023-01-17T00:02:12.174Z,87.70
2023-01-17T00:06:39.169Z,87.67
2023-01-17T00:10:39.192Z,87.51
2023-01-17T00:14:37.137Z,87.47
2023-01-17T00:18:35.160Z,87.44
2023-01-17T00:22:55.128Z,87.45
2023-01-17T00:27:07.179Z,87.43
2023-01-17T00:31:04.173Z,87.49
2023-01-17T00:35:01.173Z,87.45
2023-01-17T00:38:58.126Z,87.44
2023-01-17T00:42:55.201Z,87.46
2023-01-17T00:47:10.132Z,87.43
2023-01-17T00:51:25.178Z,87.30
2023-01-17T00:55:41.109Z,87.22
2023-01-17T00:59:56.138Z,87.23
2023-01-17T01:04:11.095Z,87.32
2023-01-17T01:08:26.099Z,87.35
2023-01-17T01:12:41.093Z,87.38
2023-01-17T01:16:57.205Z,87.33
2023-01-17T01:21:13.062Z,87.32
2023-01-17T01:25:28.095Z,87.30
2023-01-17T01:29:43.076Z,87.28
2023-01-17T01:33:40.108Z,87.30
2023-01-17T01:37:38.086Z,87.26
2023-01-17T01:41:36.063Z,87.24
2023-01-17T01:45:43.123Z,87.22
2023-01-17T01:49:41.239Z,87.14
2023-01-17T01:53:40.038Z,87.11
2023-01-17T01:57:42.114Z,87.00
2023-01-17T02:01:40.199Z,86.99
2023-01-17T02:05:40.077Z,86.97
2023-01-17T02:09:39.025Z,86.94
2023-01-17T02:13:38.031Z,86.86
2023-01-17T02:17:46.034Z,86.79
2023-01-17T02:21:57.119Z,86.87
2023-01-17T02:26:13.118Z,86.92
2023-01-17T02:30:34.001Z,86.93
2023-01-17T02:34:50.034Z,86.94
2023-01-17T02:39:06.041Z,86.91
2023-01-17T02:43:16.965Z,86.89
2023-01-17T02:47:15.005Z,86.87
2023-01-17T02:51:12.937Z,86.85
2023-01-17T02:55:40.165Z,86.82
2023-01-17T02:59:50.001Z,86.81
2023-01-17T03:04:01.944Z,86.78
2023-01-17T03:07:59.924Z,86.64
2023-01-17T03:11:58.999Z,86.56
2023-01-17T03:15:56.943Z,86.43
2023-01-17T03:19:54.946Z,86.34
2023-01-17T03:23:55.078Z,86.23
2023-01-17T03:27:54.919Z,86.14
2023-01-17T03:31:52.908Z,86.15
2023-01-17T03:35:50.945Z,86.20
2023-01-17T03:39:48.871Z,86.19
2023-01-17T03:43:46.904Z,86.17
2023-01-17T03:47:44.929Z,86.18
2023-01-17T03:51:50.041Z,86.21
2023-01-17T03:55:47.854Z,86.23
2023-01-17T03:59:45.948Z,86.28
2023-01-17T04:03:43.840Z,86.36
2023-01-17T04:07:41.910Z,86.45
2023-01-17T04:11:39.935Z,86.49
2023-01-17T04:15:37.875Z,86.56
2023-01-17T04:19:35.849Z,86.59
2023-01-17T04:23:33.839Z,86.60
2023-01-17T04:27:31.861Z,86.64
2023-01-17T04:31:31.910Z,86.71
2023-01-17T04:35:29.825Z,86.83
2023-01-17T04:39:27.809Z,86.88
2023-01-17T04:43:25.802Z,87.01
2023-01-17T04:47:23.794Z,87.18
2023-01-17T04:51:21.794Z,87.22
2023-01-17T04:55:20.797Z,87.29
2023-01-17T04:59:18.842Z,87.45
2023-01-17T05:03:16.848Z,87.53
2023-01-17T05:07:14.763Z,87.79
2023-01-17T05:11:12.890Z,87.92
2023-01-17T05:15:10.772Z,87.92
2023-01-17T05:19:08.858Z,87.94
2023-01-17T05:23:10.836Z,88.03
2023-01-17T05:27:09.823Z,88.06
2023-01-17T05:31:07.827Z,88.24
2023-01-17T05:35:05.784Z,88.35
2023-01-17T05:39:03.698Z,88.46
2023-01-17T05:43:05.837Z,88.48
2023-01-17T05:47:03.724Z,88.44
2023-01-17T05:51:01.812Z,88.43
2023-01-17T05:54:59.744Z,88.47
2023-01-17T05:58:57.748Z,88.55
2023-01-17T06:02:55.804Z,88.64
2023-01-17T06:06:53.810Z,88.62
2023-01-17T06:10:51.699Z,88.63
2023-01-17T06:14:49.726Z,88.60
2023-01-17T06:18:49.701Z,88.68
2023-01-17T06:22:47.688Z,88.66
2023-01-17T06:26:45.755Z,88.72
2023-01-17T06:30:43.650Z,88.67
2023-01-17T06:34:41.719Z,88.67
2023-01-17T06:38:39.701Z,88.72
2023-01-17T06:42:37.625Z,88.69
2023-01-17T06:46:35.635Z,88.63
2023-01-17T06:50:33.612Z,88.59
2023-01-17T06:54:31.657Z,88.62
2023-01-17T06:58:29.685Z,88.61
2023-01-17T07:02:07.197Z,88.57
2023-01-17T07:05:31.163Z,88.49
2023-01-17T07:08:55.452Z,88.48
2023-01-17T07:12:19.294Z,88.50
2023-01-17T07:15:43.375Z,88.47
2023-01-17T07:19:07.462Z,88.43
2023-01-17T07:22:31.394Z,88.91
2023-01-17T07:26:00.436Z,88.97
2023-01-17T07:29:24.415Z,88.72
2023-01-17T07:32:55.324Z,88.75
2023-01-17T07:36:19.183Z,88.65
2023-01-17T07:39:43.001Z,88.56
2023-01-17T07:43:13.479Z,88.50
2023-01-17T07:46:37.409Z,88.48
2023-01-17T07:50:02.917Z,88.44
2023-01-17T07:53:28.568Z,88.34
2023-01-17T07:56:52.516Z,88.27
2023-01-17T08:00:16.797Z,88.18
2023-01-17T08:03:41.321Z,88.05
2023-01-17T08:07:05.320Z,87.94
2023-01-17T08:10:29.193Z,87.79
2023-01-17T08:13:57.528Z,87.57
2023-01-17T08:17:22.123Z,87.39
2023-01-17T08:20:46.413Z,87.24
2023-01-17T08:24:14.541Z,86.94
2023-01-17T08:27:38.364Z,86.64
2023-01-17T08:31:10.634Z,85.95
2023-01-17T08:34:34.838Z,85.81
2023-01-17T08:38:04.771Z,85.52
2023-01-17T08:41:28.724Z,85.60
2023-01-17T08:44:52.636Z,85.08
2023-01-17T08:48:16.803Z,84.67
2023-01-17T08:51:41.804Z,84.58
2023-01-17T08:55:09.083Z,84.45
2023-01-17T08:58:33.680Z,84.32
2023-01-17T09:01:58.377Z,84.10
2023-01-17T09:05:22.355Z,83.88
2023-01-17T09:08:47.108Z,83.85
2023-01-17T09:12:11.194Z,83.61
2023-01-17T09:15:35.591Z,83.23
2023-01-17T09:19:00.528Z,82.76
2023-01-17T09:22:24.713Z,82.88
2023-01-17T09:26:00.391Z,82.79
2023-01-17T09:29:24.239Z,82.51
2023-01-17T09:32:57.676Z,82.19
2023-01-17T09:36:22.208Z,82.16
2023-01-17T09:39:46.114Z,82.24
2023-01-17T09:43:26.640Z,82.21
2023-01-17T09:46:53.064Z,82.15
2023-01-17T09:50:35.851Z,82.28
2023-01-17T09:54:00.554Z,81.81
2023-01-17T09:57:52.184Z,81.98
2023-01-17T10:01:28.665Z,82.16
2023-01-17T10:05:16.412Z,82.33
2023-01-17T10:09:05.365Z,82.43
2023-01-17T10:12:35.078Z,82.43
2023-01-17T10:16:19.290Z,82.48
2023-01-17T10:20:13.856Z,82.51
2023-01-17T10:23:56.974Z,82.63
2023-01-17T10:27:31.593Z,82.65
2023-01-17T10:31:09.130Z,82.75
2023-01-17T10:34:53.328Z,82.95
2023-01-17T10:38:18.383Z,83.41
2023-01-17T10:41:46.258Z,83.46
2023-01-17T10:45:21.575Z,83.64
2023-01-17T10:48:52.851Z,83.71
2023-01-17T10:52:37.912Z,83.49
2023-01-17T10:56:02.324Z,83.23
2023-01-17T10:59:34.521Z,83.11
2023-01-17T11:03:00.024Z,83.27
2023-01-17T11:06:26.853Z,83.35
2023-01-17T11:09:53.329Z,83.06
2023-01-17T11:13:22.389Z,82.55
2023-01-17T11:16:46.665Z,81.97
2023-01-17T11:20:33.998Z,82.09
2023-01-17T11:23:58.189Z,81.40
2023-01-17T11:27:28.009Z,81.68
2023-01-17T11:30:56.816Z,82.03
2023-01-17T11:34:29.475Z,82.22
2023-01-17T11:37:54.488Z,82.28
2023-01-17T11:41:21.260Z,82.41
2023-01-17T11:44:45.189Z,82.50
2023-01-17T11:48:09.045Z,82.61
2023-01-17T11:51:35.867Z,82.64
2023-01-17T11:55:00.354Z,82.75
2023-01-17T11:58:24.642Z,82.81
2023-01-17T12:02:50.667Z,82.87
2023-01-17T12:06:57.775Z,82.87
2023-01-17T12:10:33.371Z,82.83
2023-01-17T12:14:27.615Z,82.66
2023-01-17T12:18:05.920Z,82.60
2023-01-17T12:21:39.021Z,82.49
2023-01-17T12:25:31.153Z,82.34
2023-01-17T12:29:10.601Z,82.24
2023-01-17T12:32:54.724Z,82.35
2023-01-17T12:36:48.511Z,82.34
2023-01-17T12:40:24.096Z,82.18
2023-01-17T12:43:48.556Z,82.03
2023-01-17T12:47:16.158Z,82.09
2023-01-17T12:50:45.767Z,82.04
2023-01-17T12:54:26.512Z,82.02
2023-01-17T12:58:00.657Z,81.99
2023-01-17T13:01:40.269Z,82.11
2023-01-17T13:05:26.499Z,82.08
2023-01-17T13:08:56.962Z,82.08
2023-01-17T13:12:23.738Z,82.08
2023-01-17T13:15:50.803Z,82.27
2023-01-17T13:19:44.710Z,82.35
2023-01-17T13:23:30.110Z,82.45
2023-01-17T13:26:57.267Z,82.46
2023-01-17T13:30:58.697Z,82.48
2023-01-17T13:34:45.423Z,82.56
2023-01-17T13:38:28.418Z,82.63
2023-01-17T13:41:55.257Z,82.52
2023-01-17T13:45:22.567Z,82.62
2023-01-17T13:48:46.483Z,82.77
2023-01-17T13:52:23.335Z,82.82
2023-01-17T13:55:53.420Z,82.97
2023-01-17T13:59:29.279Z,83.14
2023-01-17T14:02:55.609Z,83.19
2023-01-17T14:06:37.780Z,83.28
2023-01-17T14:10:01.895Z,83.41
2023-01-17T14:13:34.722Z,83.61
2023-01-17T14:17:22.987Z,83.84
2023-01-17T14:20:51.353Z,83.91
2023-01-17T14:24:19.362Z,84.00
2023-01-17T14:27:43.347Z,84.07
2023-01-17T14:31:27.155Z,84.17
2023-01-17T14:35:37.039Z,84.30
2023-01-17T14:39:39.059Z,84.45
2023-01-17T14:43:40.089Z,84.60
2023-01-17T14:47:37.961Z,84.74
2023-01-17T14:51:37.023Z,84.91
2023-01-17T14:55:36.006Z,85.63
2023-01-17T14:59:36.990Z,85.93
2023-01-17T15:03:35.077Z,86.00
2023-01-17T15:07:33.971Z,86.20
2023-01-17T15:11:40.983Z,86.29
2023-01-17T15:15:48.984Z,86.49
2023-01-17T15:19:57.917Z,86.54
2023-01-17T15:24:03.025Z,86.71
2023-01-17T15:28:00.931Z,86.85
2023-01-17T15:32:10.951Z,87.26
2023-01-17T15:36:17.917Z,87.29
2023-01-17T15:40:43.931Z,87.34
2023-01-17T15:44:48.633Z,87.41
2023-01-17T15:48:52.939Z,87.53
2023-01-17T15:53:02.967Z,87.72
2023-01-17T15:57:01.982Z,87.68
2023-01-17T16:01:00.025Z,87.69
2023-01-17T16:05:00.898Z,87.89
2023-01-17T16:09:06.858Z,88.11
2023-01-17T16:13:06.920Z,88.33
2023-01-17T16:17:10.892Z,88.52
2023-01-17T16:21:15.909Z,88.59
2023-01-17T16:25:14.083Z,88.58
2023-01-17T16:29:13.945Z,88.50
2023-01-17T16:33:11.926Z,88.50
2023-01-17T16:37:10.888Z,88.45
2023-01-17T16:41:09.930Z,88.50
2023-01-17T16:45:07.904Z,88.45
2023-01-17T16:49:05.805Z,88.40
2023-01-17T16:53:07.853Z,88.39
2023-01-17T16:57:05.809Z,88.33
2023-01-17T17:01:03.980Z,88.32
2023-01-17T17:05:01.779Z,88.32
2023-01-17T17:08:59.838Z,88.30
2023-01-17T17:13:05.044Z,88.33
2023-01-17T17:17:08.854Z,88.35
2023-01-17T17:21:06.826Z,88.37
2023-01-17T17:25:04.920Z,88.39
2023-01-17T17:29:05.848Z,88.41
2023-01-17T17:33:03.792Z,88.44
2023-01-17T17:37:03.669Z,88.49
2023-01-17T17:41:01.834Z,88.53
2023-01-17T17:44:59.816Z,88.74
2023-01-17T17:48:57.749Z,88.98
2023-01-17T17:52:55.891Z,89.13
2023-01-17T17:56:55.800Z,89.19
2023-01-17T18:00:53.741Z,89.22
2023-01-17T18:04:51.746Z,89.30
2023-01-17T18:08:50.759Z,89.38
2023-01-17T18:12:48.742Z,89.48
2023-01-17T18:16:53.798Z,89.77
2023-01-17T18:20:51.760Z,89.85
2023-01-17T18:24:49.875Z,89.81
2023-01-17T18:28:47.726Z,89.77
2023-01-17T18:32:45.669Z,89.76
2023-01-17T18:36:43.683Z,89.75
2023-01-17T18:40:41.695Z,89.76
2023-01-17T18:44:40.693Z,89.76
2023-01-17T18:48:38.735Z,89.88
2023-01-17T18:52:36.712Z,90.00
2023-01-17T18:56:37.709Z,90.50
2023-01-17T19:00:35.666Z,90.45
2023-01-17T19:04:34.669Z,90.62
2023-01-17T19:08:32.661Z,90.73
2023-01-17T19:12:30.642Z,90.93
2023-01-17T19:16:37.728Z,90.95
2023-01-17T19:20:35.612Z,90.82
2023-01-17T19:24:33.764Z,90.87
2023-01-17T19:28:31.625Z,91.01
2023-01-17T19:32:29.621Z,91.12
2023-01-17T19:36:31.622Z,91.14
2023-01-17T19:40:32.590Z,91.26
2023-01-17T19:44:30.612Z,91.44
2023-01-17T19:48:44.629Z,91.55
2023-01-17T19:52:46.705Z,91.51
2023-01-17T19:56:44.579Z,91.42
2023-01-17T20:00:46.680Z,91.36
2023-01-17T20:04:44.569Z,91.31
2023-01-17T20:08:42.531Z,91.27
2023-01-17T20:12:40.576Z,91.30
2023-01-17T20:16:40.658Z,91.42
2023-01-17T20:20:55.786Z,91.55
2023-01-17T20:24:54.529Z,91.54
2023-01-17T20:28:54.969Z,91.54
2023-01-17T20:32:52.638Z,91.54
2023-01-17T20:36:50.530Z,91.61
2023-01-17T20:40:48.757Z,91.60
2023-01-17T20:44:47.529Z,91.69
2023-01-17T20:48:45.701Z,91.75
2023-01-17T20:52:44.841Z,91.74
2023-01-17T20:56:44.504Z,91.74
2023-01-17T21:00:44.533Z,91.72
2023-01-17T21:05:19.590Z,91.68
2023-01-17T21:09:17.565Z,91.63
2023-01-17T21:13:16.565Z,91.65
2023-01-17T21:17:14.470Z,91.73
2023-01-17T21:21:18.568Z,91.78
2023-01-17T21:25:16.461Z,91.82
2023-01-17T21:29:14.472Z,91.85
2023-01-17T21:33:12.710Z,91.86
2023-01-17T21:37:10.482Z,91.78
2023-01-17T21:41:11.442Z,91.75
2023-01-17T21:45:09.420Z,91.77
2023-01-17T21:49:07.591Z,91.81
2023-01-17T21:53:05.464Z,91.84
2023-01-17T21:57:25.427Z,91.89
2023-01-17T22:01:36.862Z,91.95
2023-01-17T22:05:34.434Z,91.93
2023-01-17T22:09:32.427Z,91.95
2023-01-17T22:13:32.430Z,92.02
2023-01-17T22:17:30.349Z,92.08
2023-01-17T22:21:28.481Z,92.16
2023-01-17T22:25:27.397Z,92.24
2023-01-17T22:29:25.479Z,92.25
2023-01-17T22:33:24.536Z,92.14
2023-01-17T22:37:22.514Z,91.99
2023-01-17T22:41:41.377Z,91.79
2023-01-17T22:45:39.606Z,91.63
2023-01-17T22:49:37.319Z,91.55
2023-01-17T22:53:35.324Z,91.54
2023-01-17T22:57:35.319Z,91.55
2023-01-17T23:01:37.356Z,91.55
2023-01-17T23:05:35.344Z,91.57
2023-01-17T23:09:33.414Z,91.58
2023-01-17T23:13:38.358Z,91.60
2023-01-17T23:17:58.333Z,91.60
2023-01-17T23:22:16.360Z,91.56
2023-01-17T23:26:15.321Z,91.54
2023-01-17T23:30:13.344Z,91.54
2023-01-17T23:34:11.262Z,91.57
2023-01-17T23:38:26.363Z,91.58
2023-01-17T23:42:41.272Z,91.56
2023-01-17T23:46:40.344Z,91.54
2023-01-17T23:50:38.505Z,91.52
2023-01-17T23:54:38.215Z,91.52
2023-01-17T23:58:38.244Z,91.54
